createdAt,value
2023-05-05T00:00:49.902Z,65.5487
2023-05-05T00:01:52.355Z,64.8417
2023-05-05T00:02:54.866Z,65.4038
2023-05-05T00:03:57.574Z,65.2863
2023-05-05T00:05:00.008Z,63.8236
2023-05-05T00:06:02.459Z,64.2907
2023-05-05T00:07:04.909Z,62.6718
2023-05-05T00:08:07.577Z,60.7064
2023-05-05T00:09:10.054Z,60.6869
2023-05-05T00:10:12.486Z,63.6359
2023-05-05T00:11:15.259Z,65.6960
2023-05-05T00:12:17.761Z,66.5072
2023-05-05T00:13:20.364Z,67.0416
2023-05-05T00:14:22.811Z,67.4120
2023-05-05T00:15:25.289Z,67.3146
2023-05-05T00:16:28.047Z,67.7846
2023-05-05T00:17:30.516Z,68.3070
2023-05-05T00:18:33.019Z,69.1600
2023-05-05T00:19:35.473Z,68.9260
2023-05-05T00:20:37.953Z,68.0638
2023-05-05T00:21:40.429Z,66.5109
2023-05-05T00:22:42.930Z,66.9385
2023-05-05T00:23:45.406Z,67.5448
2023-05-05T00:24:47.902Z,67.6239
2023-05-05T00:25:50.773Z,66.8491
2023-05-05T00:26:53.276Z,66.7708
2023-05-05T00:27:55.783Z,67.1174
2023-05-05T00:28:58.280Z,67.6102
2023-05-05T00:30:00.780Z,67.3706
2023-05-05T00:31:03.283Z,67.2225
2023-05-05T00:32:05.787Z,67.6163
2023-05-05T00:33:08.353Z,67.7738
2023-05-05T00:34:10.898Z,67.2281
2023-05-05T00:35:13.392Z,68.1530
2023-05-05T00:36:15.861Z,67.9911
2023-05-05T00:37:18.371Z,68.6380
2023-05-05T00:38:21.101Z,68.1967
2023-05-05T00:39:23.613Z,68.3785
2023-05-05T00:40:26.134Z,68.3952
2023-05-05T00:41:28.681Z,67.7671
2023-05-05T00:42:31.202Z,68.1936
2023-05-05T00:43:33.766Z,67.6995
2023-05-05T00:44:36.306Z,67.7935
2023-05-05T00:45:38.796Z,67.8310
2023-05-05T00:46:41.435Z,68.4546
2023-05-05T00:47:43.941Z,68.4584
2023-05-05T00:48:46.419Z,69.3703
2023-05-05T00:49:48.916Z,69.3993
2023-05-05T00:50:51.388Z,69.4924
2023-05-05T00:51:53.840Z,69.8391
2023-05-05T00:52:56.317Z,70.2528
2023-05-05T00:53:58.823Z,70.5903
2023-05-05T00:55:01.318Z,70.9806
2023-05-05T00:56:03.762Z,70.8967
2023-05-05T00:57:06.219Z,71.2698
2023-05-05T00:58:08.686Z,71.4563
2023-05-05T00:59:11.148Z,71.2339
2023-05-05T01:00:13.631Z,71.8073
2023-05-05T01:01:16.100Z,71.8242
2023-05-05T01:02:18.539Z,71.9330
2023-05-05T01:03:21.051Z,72.2862
2023-05-05T01:04:23.550Z,72.1927
2023-05-05T01:05:25.974Z,72.3983
2023-05-05T01:06:28.462Z,72.6945
2023-05-05T01:07:30.907Z,72.7473
2023-05-05T01:08:33.373Z,73.2812
2023-05-05T01:09:35.893Z,72.9449
2023-05-05T01:10:38.325Z,71.8577
2023-05-05T01:11:40.824Z,71.2711
2023-05-05T01:12:43.333Z,69.7117
2023-05-05T01:13:45.797Z,69.3618
2023-05-05T01:14:48.268Z,70.5808
2023-05-05T01:15:50.773Z,71.5047
2023-05-05T01:16:53.197Z,71.5657
2023-05-05T01:17:55.699Z,72.2483
2023-05-05T01:18:58.185Z,72.1833
2023-05-05T01:20:00.745Z,72.8662
2023-05-05T01:21:03.224Z,72.3476
2023-05-05T01:22:05.700Z,72.7477
2023-05-05T01:23:08.178Z,72.5441
2023-05-05T01:24:10.917Z,73.0609
2023-05-05T01:25:13.364Z,73.8573
2023-05-05T01:26:15.788Z,74.1773
2023-05-05T01:27:18.257Z,74.3386
2023-05-05T01:28:20.739Z,74.5688
2023-05-05T01:29:23.242Z,75.2189
2023-05-05T01:30:25.709Z,75.3885
2023-05-05T01:31:28.248Z,75.3756
2023-05-05T01:32:30.716Z,75.4449
2023-05-05T01:33:33.109Z,75.2272
2023-05-05T01:34:35.628Z,75.6665
2023-05-05T01:35:38.075Z,76.1601
2023-05-05T01:36:40.528Z,76.2647
2023-05-05T01:37:43.020Z,76.0293
2023-05-05T01:38:45.711Z,76.3534
2023-05-05T01:39:48.166Z,76.1856
2023-05-05T01:40:50.635Z,75.7725
2023-05-05T01:41:53.066Z,76.2097
2023-05-05T01:42:55.565Z,76.0174
2023-05-05T01:43:58.038Z,76.1188
2023-05-05T01:45:00.509Z,76.4029
2023-05-05T01:46:03.236Z,76.1396
2023-05-05T01:47:05.741Z,76.2149
2023-05-05T01:48:08.189Z,75.9967
2023-05-05T01:49:10.648Z,76.1166
2023-05-05T01:50:13.112Z,74.9643
2023-05-05T01:51:15.573Z,74.2598
2023-05-05T01:52:18.044Z,73.5357
2023-05-05T01:53:20.740Z,73.1264
2023-05-05T01:54:23.185Z,73.1040
2023-05-05T01:55:25.645Z,72.4808
2023-05-05T01:56:28.366Z,72.1876
2023-05-05T01:57:30.815Z,71.1254
2023-05-05T01:58:33.517Z,70.1567
2023-05-05T01:59:36.014Z,70.7397
2023-05-05T02:00:38.494Z,70.2849
2023-05-05T02:01:41.057Z,71.0104
2023-05-05T02:02:43.576Z,71.0622
2023-05-05T02:03:46.128Z,70.6296
2023-05-05T02:04:48.600Z,69.8979
2023-05-05T02:05:51.388Z,70.2039
2023-05-05T02:06:53.837Z,70.8669
2023-05-05T02:07:56.329Z,70.8352
2023-05-05T02:08:58.838Z,70.4582
2023-05-05T02:10:01.357Z,66.3601
2023-05-05T02:11:03.915Z,63.1266
2023-05-05T02:12:06.416Z,65.4964
2023-05-05T02:13:09.016Z,67.3811
2023-05-05T02:14:11.762Z,68.3067
2023-05-05T02:15:14.281Z,65.9376
2023-05-05T02:16:16.901Z,66.6323
2023-05-05T02:17:19.472Z,66.8383
2023-05-05T02:18:21.949Z,67.3324
2023-05-05T02:19:22.321Z,67.8282
2023-05-05T02:20:24.848Z,68.1939
2023-05-05T02:21:27.684Z,67.4526
2023-05-05T02:22:30.140Z,67.9808
2023-05-05T02:23:32.683Z,69.3028
2023-05-05T02:24:35.170Z,68.4893
2023-05-05T02:25:37.638Z,68.8639
2023-05-05T02:26:40.400Z,69.6583
2023-05-05T02:27:42.872Z,69.5794
2023-05-05T02:28:45.633Z,69.5174
2023-05-05T02:29:48.080Z,70.3713
2023-05-05T02:30:50.745Z,70.7860
2023-05-05T02:31:53.472Z,70.8135
2023-05-05T02:32:55.979Z,71.7407
2023-05-05T02:33:58.782Z,72.3201
2023-05-05T02:35:01.254Z,71.8000
2023-05-05T02:36:03.959Z,71.3506
2023-05-05T02:37:06.411Z,70.9594
2023-05-05T02:38:08.823Z,72.2900
2023-05-05T02:39:11.585Z,72.6068
2023-05-05T02:40:14.063Z,72.6700
2023-05-05T02:41:16.824Z,72.5736
2023-05-05T02:42:19.244Z,73.1806
2023-05-05T02:43:21.733Z,73.5065
2023-05-05T02:44:24.533Z,73.6311
2023-05-05T02:45:26.937Z,74.2305
2023-05-05T02:46:29.700Z,74.9765
2023-05-05T02:47:32.147Z,74.9820
2023-05-05T02:48:34.620Z,75.7225
2023-05-05T02:49:37.314Z,75.7690
2023-05-05T02:50:39.812Z,74.8736
2023-05-05T02:51:42.275Z,74.8194
2023-05-05T02:52:44.719Z,74.9562
2023-05-05T02:53:47.165Z,75.4288
2023-05-05T02:54:49.595Z,75.6320
2023-05-05T02:55:52.061Z,75.9466
2023-05-05T02:56:54.490Z,76.3939
2023-05-05T02:57:56.917Z,76.6786
2023-05-05T02:58:59.381Z,76.7846
2023-05-05T03:00:01.835Z,76.8040
2023-05-05T03:01:04.296Z,76.8572
2023-05-05T03:02:07.079Z,76.8882
2023-05-05T03:03:09.595Z,76.6932
2023-05-05T03:04:12.072Z,76.5806
2023-05-05T03:05:14.481Z,76.9724
2023-05-05T03:06:17.046Z,77.0829
2023-05-05T03:07:19.499Z,76.1481
2023-05-05T03:08:21.916Z,75.5302
2023-05-05T03:09:24.394Z,76.0707
2023-05-05T03:10:26.841Z,76.7671
2023-05-05T03:11:29.300Z,77.3851
2023-05-05T03:12:31.779Z,77.7008
2023-05-05T03:13:34.189Z,76.9829
2023-05-05T03:14:36.661Z,77.2261
2023-05-05T03:15:39.111Z,77.8329
2023-05-05T03:16:41.638Z,77.5890
2023-05-05T03:17:44.142Z,77.5071
2023-05-05T03:18:46.602Z,77.2000
2023-05-05T03:19:49.062Z,77.5377
2023-05-05T03:20:51.491Z,76.0954
2023-05-05T03:21:53.949Z,75.2652
2023-05-05T03:22:56.380Z,74.7314
2023-05-05T03:23:58.836Z,73.4949
2023-05-05T03:25:01.287Z,73.0881
2023-05-05T03:26:03.739Z,73.2702
2023-05-05T03:27:06.389Z,73.6916
2023-05-05T03:28:08.804Z,74.3877
2023-05-05T03:29:11.234Z,73.8170
2023-05-05T03:30:13.665Z,72.6857
2023-05-05T03:31:16.152Z,72.2472
2023-05-05T03:32:18.601Z,71.4402
2023-05-05T03:33:21.017Z,71.2875
2023-05-05T03:34:23.487Z,70.9889
2023-05-05T03:35:25.929Z,71.8271
2023-05-05T03:36:29.502Z,71.6353
2023-05-05T03:37:32.018Z,71.7594
2023-05-05T03:38:34.566Z,72.2519
2023-05-05T03:39:36.986Z,72.3613
2023-05-05T03:40:44.196Z,72.5586
2023-05-05T03:41:40.710Z,72.5125
2023-05-05T03:42:43.152Z,72.1242
2023-05-05T03:43:45.816Z,72.2911
2023-05-05T03:44:48.294Z,71.7504
2023-05-05T03:45:50.781Z,71.0238
2023-05-05T03:46:51.116Z,70.8930
2023-05-05T03:47:53.609Z,70.7216
2023-05-05T03:48:56.399Z,71.1343
2023-05-05T03:49:58.816Z,71.8632
2023-05-05T03:51:01.273Z,71.9229
2023-05-05T03:52:04.078Z,72.3350
2023-05-05T03:53:06.543Z,70.8801
2023-05-05T03:54:09.314Z,70.4778
2023-05-05T03:55:11.750Z,70.7082
2023-05-05T03:56:14.224Z,70.1472
2023-05-05T03:57:17.015Z,70.6154
2023-05-05T03:58:19.420Z,71.7185
2023-05-05T03:59:21.862Z,71.4511
2023-05-05T04:00:24.330Z,70.7487
2023-05-05T04:01:27.049Z,69.9744
2023-05-05T04:02:29.591Z,69.0598
2023-05-05T04:03:32.164Z,69.0157
2023-05-05T04:04:34.791Z,68.8510
2023-05-05T04:05:37.323Z,68.8729
2023-05-05T04:06:39.816Z,69.3586
2023-05-05T04:07:42.279Z,69.7338
2023-05-05T04:08:44.757Z,69.8116
2023-05-05T04:09:47.222Z,70.0535
2023-05-05T04:10:49.736Z,70.3807
2023-05-05T04:11:52.224Z,71.0561
2023-05-05T04:12:54.683Z,73.1692
2023-05-05T04:13:57.115Z,77.2824
2023-05-05T04:14:59.635Z,78.1879
2023-05-05T04:16:02.120Z,77.2604
2023-05-05T04:17:04.607Z,76.3180
2023-05-05T04:18:07.104Z,76.1257
2023-05-05T04:19:09.570Z,76.6856
2023-05-05T04:20:12.047Z,76.6401
2023-05-05T04:21:14.492Z,75.5024
2023-05-05T04:22:16.937Z,75.9056
2023-05-05T04:23:19.380Z,75.8940
2023-05-05T04:24:21.831Z,76.0634
2023-05-05T04:25:24.285Z,75.9294
2023-05-05T04:26:26.711Z,73.6830
2023-05-05T04:27:29.228Z,70.9111
2023-05-05T04:28:31.661Z,71.7149
2023-05-05T04:29:34.152Z,71.1907
2023-05-05T04:30:36.636Z,69.5878
2023-05-05T04:31:39.114Z,69.1574
2023-05-05T04:32:41.539Z,70.5970
2023-05-05T04:33:44.105Z,71.8273
2023-05-05T04:34:46.609Z,70.8864
2023-05-05T04:35:49.028Z,69.9537
2023-05-05T04:36:51.478Z,67.5554
2023-05-05T04:37:53.904Z,65.4622
2023-05-05T04:38:56.433Z,68.7357
2023-05-05T04:39:58.900Z,71.4833
2023-05-05T04:41:01.358Z,69.5814
2023-05-05T04:42:03.867Z,67.8851
2023-05-05T04:43:06.276Z,68.0372
2023-05-05T04:44:08.745Z,68.4697
2023-05-05T04:45:11.169Z,69.0101
2023-05-05T04:46:13.691Z,69.6267
2023-05-05T04:47:16.429Z,70.4519
2023-05-05T04:48:18.905Z,70.7656
2023-05-05T04:49:21.411Z,71.9181
2023-05-05T04:50:23.835Z,72.2960
2023-05-05T04:51:26.296Z,72.8782
2023-05-05T04:52:28.781Z,74.1515
2023-05-05T04:53:31.234Z,74.7396
2023-05-05T04:54:33.729Z,75.0116
2023-05-05T04:55:36.167Z,74.9658
2023-05-05T04:56:38.641Z,73.1339
2023-05-05T04:57:41.114Z,70.3889
2023-05-05T04:58:43.575Z,69.2539
2023-05-05T04:59:46.035Z,69.1200
2023-05-05T05:00:48.500Z,68.0630
2023-05-05T05:01:51.185Z,68.4330
2023-05-05T05:02:53.715Z,66.5785
2023-05-05T05:03:56.224Z,64.5494
2023-05-05T05:04:58.670Z,64.3262
2023-05-05T05:06:01.108Z,65.3995
2023-05-05T05:07:03.619Z,67.2543
2023-05-05T05:08:06.026Z,68.4785
2023-05-05T05:09:08.498Z,68.1643
2023-05-05T05:10:11.108Z,70.3626
2023-05-05T05:11:13.657Z,73.5115
2023-05-05T05:12:16.145Z,73.5249
2023-05-05T05:13:18.747Z,73.8267
2023-05-05T05:14:21.252Z,74.7268
2023-05-05T05:15:23.719Z,75.4071
2023-05-05T05:16:26.347Z,75.5825
2023-05-05T05:17:28.839Z,76.0269
2023-05-05T05:18:31.286Z,75.9812
2023-05-05T05:19:33.752Z,73.1642
2023-05-05T05:20:36.218Z,71.7838
2023-05-05T05:21:38.665Z,76.0491
2023-05-05T05:22:41.150Z,75.1510
2023-05-05T05:23:43.606Z,76.0134
2023-05-05T05:24:46.188Z,77.1383
2023-05-05T05:25:48.674Z,78.1995
2023-05-05T05:26:50.891Z,77.8159
2023-05-05T05:28:06.131Z,78.7084
2023-05-05T05:28:54.398Z,79.3089
2023-05-05T05:29:57.083Z,80.0997
2023-05-05T05:30:59.550Z,79.2478
2023-05-05T05:32:02.106Z,79.1971
2023-05-05T05:33:04.539Z,79.0877
2023-05-05T05:34:04.895Z,78.7403
2023-05-05T05:35:07.370Z,76.6482
2023-05-05T05:36:09.817Z,77.3041
2023-05-05T05:37:12.512Z,78.1008
2023-05-05T05:38:14.991Z,77.7232
2023-05-05T05:39:17.670Z,76.7558
2023-05-05T05:40:20.098Z,76.9463
2023-05-05T05:41:22.584Z,77.3510
2023-05-05T05:42:25.251Z,77.6465
2023-05-05T05:43:27.726Z,76.1236
2023-05-05T05:44:30.430Z,75.7340
2023-05-05T05:45:32.910Z,76.8127
2023-05-05T05:46:35.452Z,75.5386
2023-05-05T05:47:38.232Z,76.0190
2023-05-05T05:48:40.694Z,76.1659
2023-05-05T05:49:43.383Z,76.0809
2023-05-05T05:50:45.990Z,76.7456
2023-05-05T05:51:48.420Z,77.5888
2023-05-05T05:52:50.838Z,76.7566
2023-05-05T05:53:53.361Z,76.3163
2023-05-05T05:54:55.780Z,75.5380
2023-05-05T05:55:58.263Z,74.2665
2023-05-05T05:57:00.826Z,74.6911
2023-05-05T05:58:03.257Z,74.2498
2023-05-05T05:59:05.712Z,73.1481
2023-05-05T06:00:08.669Z,71.6729
2023-05-05T06:01:11.379Z,72.4340
2023-05-05T06:02:14.176Z,73.5179
2023-05-05T06:03:16.868Z,72.3342
2023-05-05T06:04:19.678Z,72.4555
2023-05-05T06:05:22.125Z,73.1614
2023-05-05T06:06:24.583Z,72.5581
2023-05-05T06:07:30.688Z,71.8355
2023-05-05T06:08:33.150Z,69.8183
2023-05-05T06:09:35.922Z,71.2914
2023-05-05T06:10:38.357Z,72.7226
2023-05-05T06:11:40.798Z,72.6366
2023-05-05T06:12:43.439Z,72.9597
2023-05-05T06:13:45.884Z,72.6715
2023-05-05T06:14:48.590Z,72.7165
2023-05-05T06:15:51.096Z,69.3582
2023-05-05T06:16:53.619Z,71.9475
2023-05-05T06:17:56.061Z,70.7714
2023-05-05T06:18:58.536Z,70.9426
2023-05-05T06:20:01.348Z,70.3225
2023-05-05T06:21:03.802Z,68.7218
2023-05-05T06:22:06.281Z,66.9478
2023-05-05T06:23:08.742Z,64.3158
2023-05-05T06:24:11.243Z,60.5326
2023-05-05T06:25:13.927Z,59.1359
2023-05-05T06:26:16.418Z,61.4324
2023-05-05T06:27:18.884Z,59.6381
2023-05-05T06:28:21.353Z,61.2582
2023-05-05T06:29:23.958Z,63.9129
2023-05-05T06:30:26.449Z,60.7423
2023-05-05T06:31:28.977Z,60.5097
2023-05-05T06:32:31.435Z,59.8918
2023-05-05T06:33:33.881Z,60.9899
2023-05-05T06:34:36.617Z,60.8534
2023-05-05T06:35:39.044Z,60.9394
2023-05-05T06:36:41.604Z,62.0760
2023-05-05T06:37:44.392Z,61.1472
2023-05-05T06:38:46.828Z,59.4249
2023-05-05T06:39:49.314Z,57.7395
2023-05-05T06:40:51.796Z,58.8318
2023-05-05T06:41:54.271Z,58.4960
2023-05-05T06:42:56.669Z,58.7996
2023-05-05T06:43:59.103Z,57.5490
2023-05-05T06:45:01.902Z,60.3610
2023-05-05T06:46:04.327Z,60.0649
2023-05-05T06:47:06.837Z,58.0080
2023-05-05T06:48:09.335Z,57.5350
2023-05-05T06:49:11.766Z,59.0157
2023-05-05T06:50:14.277Z,60.1960
2023-05-05T06:51:16.756Z,58.3948
2023-05-05T06:52:19.242Z,57.2326
2023-05-05T06:53:21.701Z,55.5243
2023-05-05T06:54:24.198Z,54.3382
2023-05-05T06:55:26.875Z,55.0955
2023-05-05T06:56:29.364Z,55.3712
2023-05-05T06:57:31.880Z,55.5316
2023-05-05T06:58:34.358Z,55.6792
2023-05-05T06:59:36.837Z,52.1968
2023-05-05T07:00:39.412Z,51.5071
2023-05-05T07:01:41.895Z,55.4600
2023-05-05T07:02:42.702Z,53.9740
2023-05-05T07:03:45.284Z,56.4396
2023-05-05T07:04:48.026Z,58.1321
2023-05-05T07:05:50.523Z,58.0424
2023-05-05T07:06:53.005Z,56.3171
2023-05-05T07:07:55.503Z,54.6849
2023-05-05T07:08:57.976Z,52.8961
2023-05-05T07:10:00.483Z,54.0938
2023-05-05T07:11:02.960Z,53.1790
2023-05-05T07:12:05.412Z,53.6356
2023-05-05T07:13:07.977Z,52.1576
2023-05-05T07:14:10.535Z,51.8549
2023-05-05T07:15:26.933Z,49.8170
2023-05-05T07:16:14.190Z,49.6439
2023-05-05T07:17:16.693Z,49.3008
2023-05-05T07:18:19.200Z,52.3384
2023-05-05T07:19:21.717Z,51.4453
2023-05-05T07:20:24.445Z,50.4271
2023-05-05T07:21:27.081Z,51.0464
2023-05-05T07:22:29.623Z,54.3124
2023-05-05T07:23:32.163Z,50.9921
2023-05-05T07:24:34.604Z,47.2814
2023-05-05T07:25:37.119Z,49.3081
2023-05-05T07:26:39.612Z,50.6586
2023-05-05T07:28:42.438Z,51.3655
2023-05-05T07:29:44.957Z,52.0739
2023-05-05T07:30:47.482Z,52.2043
2023-05-05T07:31:50.040Z,52.6871
2023-05-05T07:32:52.541Z,52.4995
2023-05-05T07:33:55.001Z,50.3375
2023-05-05T07:34:57.507Z,52.0870
2023-05-05T07:36:00.457Z,52.2735
2023-05-05T07:37:02.957Z,52.7951
2023-05-05T07:38:05.652Z,51.0272
2023-05-05T07:39:08.448Z,52.2417
2023-05-05T07:40:11.145Z,52.5531
2023-05-05T07:41:13.787Z,51.6135
2023-05-05T07:42:16.282Z,50.7257
2023-05-05T07:43:18.810Z,52.3219
2023-05-05T07:44:21.344Z,53.3680
2023-05-05T07:45:24.112Z,54.0219
2023-05-05T07:46:26.678Z,54.0835
2023-05-05T07:47:29.200Z,54.0844
2023-05-05T07:48:31.666Z,52.5777
2023-05-05T07:49:34.411Z,53.2877
2023-05-05T07:51:40.541Z,53.1237
2023-05-05T07:52:48.416Z,51.8921
2023-05-05T07:53:44.152Z,53.4571
2023-05-05T07:54:46.685Z,54.1282
2023-05-05T07:55:49.405Z,55.3121
2023-05-05T07:56:51.975Z,56.4319
2023-05-05T07:57:54.896Z,55.0951
2023-05-05T07:58:57.409Z,52.8215
2023-05-05T08:00:07.557Z,53.6491
2023-05-05T08:01:10.208Z,54.7231
2023-05-05T08:03:13.023Z,54.2111
2023-05-05T08:04:15.595Z,50.1441
2023-05-05T08:05:18.151Z,49.5016
2023-05-05T08:06:20.655Z,51.5501
2023-05-05T08:07:23.527Z,51.3527
2023-05-05T08:08:26.081Z,49.7894
2023-05-05T08:09:28.557Z,49.2770
2023-05-05T08:10:31.323Z,48.6363
2023-05-05T08:11:33.864Z,50.2573
2023-05-05T08:12:36.327Z,52.2149
2023-05-05T08:13:38.836Z,50.6259
2023-05-05T08:14:41.350Z,50.2876
2023-05-05T08:15:44.062Z,49.6103
2023-05-05T08:16:46.558Z,49.8966
2023-05-05T08:17:49.492Z,49.2377
2023-05-05T08:18:52.195Z,49.7592
2023-05-05T08:19:54.678Z,49.0393
2023-05-05T08:20:57.160Z,44.3528
2023-05-05T08:22:01.205Z,42.4041
2023-05-05T08:23:00.322Z,42.4474
2023-05-05T08:24:02.782Z,48.4790
2023-05-05T08:25:05.415Z,47.2227
2023-05-05T08:27:08.187Z,52.2343
2023-05-05T08:28:10.681Z,47.2941
2023-05-05T08:30:14.119Z,49.6180
2023-05-05T08:31:16.635Z,46.5390
2023-05-05T08:32:19.128Z,47.5723
2023-05-05T08:33:21.624Z,49.7973
2023-05-05T08:34:24.113Z,48.1915
2023-05-05T08:35:26.611Z,46.7220
2023-05-05T08:36:29.103Z,44.2674
2023-05-05T08:37:31.672Z,47.1210
2023-05-05T08:38:34.146Z,45.9468
2023-05-05T08:39:36.637Z,46.0781
2023-05-05T08:40:39.147Z,45.6746
2023-05-05T08:41:41.647Z,43.3069
2023-05-05T08:42:44.155Z,45.2837
2023-05-05T08:43:46.652Z,49.9499
2023-05-05T08:44:49.641Z,51.3049
2023-05-05T08:45:52.155Z,51.6448
2023-05-05T08:46:54.694Z,50.6232
2023-05-05T08:47:57.168Z,48.3737
2023-05-05T08:48:59.672Z,53.2625
2023-05-05T08:50:02.283Z,52.3102
2023-05-05T08:51:05.670Z,52.7738
2023-05-05T08:52:08.256Z,52.7066
2023-05-05T08:53:10.742Z,53.8574
2023-05-05T08:54:13.245Z,53.1640
2023-05-05T08:55:15.826Z,51.6830
2023-05-05T08:57:18.689Z,53.0602
2023-05-05T08:58:21.188Z,49.5224
2023-05-05T08:59:23.672Z,45.7883
2023-05-05T09:00:26.164Z,49.5703
2023-05-05T09:02:29.511Z,48.4041
2023-05-05T09:03:32.040Z,49.3283
2023-05-05T09:04:34.614Z,47.9530
2023-05-05T09:05:37.356Z,48.0231
2023-05-05T09:06:39.805Z,50.1401
2023-05-05T09:07:42.312Z,47.3670
2023-05-05T09:08:44.596Z,45.9090
2023-05-05T09:09:47.072Z,48.5328
2023-05-05T09:10:52.929Z,49.3320
2023-05-05T09:11:55.487Z,48.0856
2023-05-05T09:12:57.989Z,51.2189
2023-05-05T09:14:00.494Z,48.2685
2023-05-05T09:15:02.996Z,48.4308
2023-05-05T09:16:05.525Z,48.0838
2023-05-05T09:17:08.002Z,50.0813
2023-05-05T09:18:10.572Z,51.8246
2023-05-05T09:19:13.019Z,50.0852
2023-05-05T09:20:15.519Z,48.6198
2023-05-05T09:21:18.003Z,50.0136
2023-05-05T09:22:20.492Z,50.8564
2023-05-05T09:23:22.991Z,50.8610
2023-05-05T09:24:25.485Z,49.6652
2023-05-05T09:25:27.978Z,47.3459
2023-05-05T09:26:30.486Z,48.7512
2023-05-05T09:27:32.986Z,50.5869
2023-05-05T09:28:35.490Z,51.2539
2023-05-05T09:29:38.002Z,49.5488
2023-05-05T09:30:40.269Z,48.8610
2023-05-05T09:31:42.769Z,44.7055
2023-05-05T09:32:43.849Z,43.0979
2023-05-05T09:34:47.003Z,45.5529
2023-05-05T09:35:49.239Z,50.1920
2023-05-05T09:36:51.743Z,50.0863
2023-05-05T09:37:54.235Z,49.6185
2023-05-05T09:38:58.780Z,47.1444
2023-05-05T09:39:57.487Z,45.5089
2023-05-05T09:40:59.970Z,45.6868
2023-05-05T09:42:02.437Z,45.4445
2023-05-05T09:43:04.962Z,44.0559
2023-05-05T09:44:07.461Z,43.2953
2023-05-05T09:45:10.109Z,46.7169
2023-05-05T09:46:12.662Z,45.1573
2023-05-05T09:47:28.539Z,45.4774
2023-05-05T09:48:16.498Z,48.1395
2023-05-05T09:49:18.998Z,46.5719
2023-05-05T09:50:21.492Z,45.5086
2023-05-05T09:51:23.950Z,45.1936
2023-05-05T09:52:26.502Z,47.6929
2023-05-05T09:53:28.980Z,46.7277
2023-05-05T09:54:31.487Z,48.8773
2023-05-05T09:55:34.324Z,47.7405
2023-05-05T09:56:36.834Z,44.3316
2023-05-05T09:57:39.372Z,43.7474
2023-05-05T09:58:41.967Z,44.1724
2023-05-05T09:59:44.477Z,44.8029
2023-05-05T10:00:46.989Z,46.8359
2023-05-05T10:01:49.510Z,48.8165
2023-05-05T10:02:52.034Z,49.2836
2023-05-05T10:03:54.516Z,46.3040
2023-05-05T10:04:57.144Z,46.6439
2023-05-05T10:05:59.674Z,48.1414
2023-05-05T10:07:02.179Z,47.5132
2023-05-05T10:08:04.679Z,46.3767
2023-05-05T10:09:07.177Z,44.3597
2023-05-05T10:10:09.862Z,45.9919
2023-05-05T10:11:12.640Z,49.0700
2023-05-05T10:12:15.357Z,47.9423
2023-05-05T10:13:17.944Z,50.4602
2023-05-05T10:14:20.551Z,46.1442
2023-05-05T10:15:23.047Z,46.7806
2023-05-05T10:16:26.796Z,44.2160
2023-05-05T10:17:26.287Z,45.3012
2023-05-05T10:18:28.782Z,46.6458
2023-05-05T10:19:31.265Z,45.0625
2023-05-05T10:20:33.795Z,48.4049
2023-05-05T10:21:36.283Z,49.3255
2023-05-05T10:22:38.933Z,47.9704
2023-05-05T10:23:41.418Z,47.7720
2023-05-05T10:24:43.915Z,45.2763
2023-05-05T10:25:46.434Z,43.0389
2023-05-05T10:26:48.921Z,45.2939
2023-05-05T10:27:51.694Z,45.3541
2023-05-05T10:28:54.176Z,42.1085
2023-05-05T10:29:56.699Z,44.7062
2023-05-05T10:30:59.202Z,46.6717
2023-05-05T10:32:08.739Z,49.9310
2023-05-05T10:33:27.249Z,50.8844
2023-05-05T10:34:08.464Z,50.4063
2023-05-05T10:35:10.979Z,48.3893
2023-05-05T10:36:13.533Z,48.1188
2023-05-05T10:37:15.996Z,47.2670
2023-05-05T10:38:18.531Z,48.6235
2023-05-05T10:39:21.010Z,49.1393
2023-05-05T10:40:23.555Z,50.5019
2023-05-05T10:41:26.192Z,50.3477
2023-05-05T10:42:28.975Z,48.6864
2023-05-05T10:43:31.497Z,48.9735
2023-05-05T10:44:33.985Z,47.7855
2023-05-05T10:45:36.570Z,46.6285
2023-05-05T10:46:39.175Z,46.0831
2023-05-05T10:47:41.700Z,45.7316
2023-05-05T10:48:44.273Z,48.1403
2023-05-05T10:49:46.782Z,48.9666
2023-05-05T10:50:49.288Z,49.1125
2023-05-05T10:52:52.011Z,48.3009
2023-05-05T10:54:02.225Z,45.4472
2023-05-05T10:55:04.705Z,49.4618
2023-05-05T10:56:07.187Z,49.3213
2023-05-05T10:57:09.714Z,49.5013
2023-05-05T10:58:12.239Z,46.9868
2023-05-05T10:59:15.569Z,47.5960
2023-05-05T11:00:18.104Z,47.3131
2023-05-05T11:01:20.688Z,47.4230
2023-05-05T11:02:23.343Z,49.3607
2023-05-05T11:03:23.397Z,50.6026
2023-05-05T11:04:25.987Z,49.5357
2023-05-05T11:05:28.457Z,48.4162
2023-05-05T11:06:31.172Z,47.7908
2023-05-05T11:07:33.671Z,49.8069
2023-05-05T11:08:36.149Z,47.7169
2023-05-05T11:09:38.667Z,47.9953
2023-05-05T11:10:41.135Z,48.9426
2023-05-05T11:11:43.791Z,46.4844
2023-05-05T11:12:46.350Z,48.9220
2023-05-05T11:13:49.049Z,44.8265
2023-05-05T11:14:51.628Z,47.1542
2023-05-05T11:15:54.235Z,48.4798
2023-05-05T11:16:56.949Z,46.0849
2023-05-05T11:17:59.597Z,43.3529
2023-05-05T11:19:02.111Z,43.0769
2023-05-05T11:20:04.670Z,41.9601
2023-05-05T11:21:07.168Z,40.5974
2023-05-05T11:22:09.672Z,41.8894
2023-05-05T11:23:14.003Z,43.4791
2023-05-05T11:24:14.962Z,40.6787
2023-05-05T11:25:18.255Z,38.8923
2023-05-05T11:26:26.008Z,39.2535
2023-05-05T11:27:21.180Z,43.3116
2023-05-05T11:28:23.729Z,43.4856
2023-05-05T11:29:26.222Z,42.1225
2023-05-05T11:30:29.409Z,43.3652
2023-05-05T11:31:32.029Z,41.0908
2023-05-05T11:32:34.604Z,40.8154
2023-05-05T11:33:37.099Z,43.5299
2023-05-05T11:34:39.599Z,42.7464
2023-05-05T11:35:42.082Z,42.1630
2023-05-05T11:36:44.589Z,44.9223
2023-05-05T11:37:47.093Z,42.7854
2023-05-05T11:38:49.585Z,44.3878
2023-05-05T11:39:52.075Z,43.2100
2023-05-05T11:40:54.783Z,44.7908
2023-05-05T11:41:57.241Z,46.6800
2023-05-05T11:42:59.733Z,44.2370
2023-05-05T11:44:02.240Z,43.8797
2023-05-05T11:45:04.724Z,40.5804
2023-05-05T11:46:07.262Z,39.8935
2023-05-05T11:47:09.726Z,42.1505
2023-05-05T11:48:12.532Z,41.5816
2023-05-05T11:49:14.998Z,43.9701
2023-05-05T11:50:17.738Z,41.6501
2023-05-05T11:51:20.257Z,40.7746
2023-05-05T11:52:22.750Z,40.7817
2023-05-05T11:53:25.295Z,41.2557
2023-05-05T11:54:27.829Z,41.6207
2023-05-05T11:55:30.287Z,43.0240
2023-05-05T11:56:32.798Z,42.8437
2023-05-05T11:57:35.286Z,42.9778
2023-05-05T11:58:37.791Z,43.6100
2023-05-05T11:59:40.290Z,44.3411
2023-05-05T12:00:42.799Z,45.6446
2023-05-05T12:01:45.308Z,44.1525
2023-05-05T12:02:47.862Z,45.8044
2023-05-05T12:03:50.746Z,44.4223
2023-05-05T12:04:53.380Z,41.7147
2023-05-05T12:05:56.032Z,41.9348
2023-05-05T12:06:58.461Z,41.9960
2023-05-05T12:08:00.936Z,44.0811
2023-05-05T12:09:03.409Z,42.6117
2023-05-05T12:10:05.966Z,43.2747
2023-05-05T12:11:08.458Z,43.2562
2023-05-05T12:12:10.946Z,40.2537
2023-05-05T12:13:13.468Z,39.8341
2023-05-05T12:14:16.103Z,43.8221
2023-05-05T12:15:18.560Z,41.9494
2023-05-05T12:16:21.147Z,40.9958
2023-05-05T12:17:23.625Z,42.5984
2023-05-05T12:18:26.085Z,41.6942
2023-05-05T12:19:28.579Z,43.6086
2023-05-05T12:20:31.076Z,43.4445
2023-05-05T12:21:33.566Z,41.0969
2023-05-05T12:22:36.118Z,40.3927
2023-05-05T12:23:38.627Z,42.8805
2023-05-05T12:24:41.104Z,41.3220
2023-05-05T12:25:43.559Z,41.7232
2023-05-05T12:26:46.066Z,40.9057
2023-05-05T12:27:48.534Z,41.5613
2023-05-05T12:28:51.057Z,40.6144
2023-05-05T12:29:53.541Z,40.9426
2023-05-05T12:30:56.053Z,43.3284
2023-05-05T12:31:58.600Z,41.0398
2023-05-05T12:33:01.165Z,42.6008
2023-05-05T12:34:03.650Z,42.8349
2023-05-05T12:35:06.155Z,42.8996
2023-05-05T12:36:08.621Z,41.1599
2023-05-05T12:37:11.138Z,39.3724
2023-05-05T12:38:13.599Z,41.7605
2023-05-05T12:39:16.100Z,42.6004
2023-05-05T12:40:18.650Z,43.6270
2023-05-05T12:41:21.159Z,42.9389
2023-05-05T12:42:23.626Z,40.5912
2023-05-05T12:43:26.140Z,41.3059
2023-05-05T12:44:28.468Z,41.0294
2023-05-05T12:45:31.282Z,42.9497